OTBD Airport Information

Runway Information
Runway 15 Length 15000 ft width 151 ft
Elevation 35 ft Threshold 2460 ft Heading 158
Runway 33 Length 15000 ft Width 151 ft
Elevation 25 ft Threshold 0 ft Heading 338
Airport Frequencies
Type APP Name APP Frequency 121.1 MHZ
Type ATIS Name ATIS Frequency 126.45 MHZ
Type GND Name GND Frequency 118.275 MHZ
Type OPS Name KINGFISH N Frequency 139.5 MHZ
Type TWR Name TWR Frequency 118.9 MHZ
Airport Navaids
Type VOR-DME Name Doha Frequency 112400 KHZ
Type NDB Name Wk Frequency 323 KHZ
Airport Weather Information & NOTAM
ADDS - METARS form results

(2139 UTC 12 December 2018)
Data provider http://aviationweather.gov/metar/data/
 
METAR text: OTBD 122130Z AUTO 26004KT 220V290 CAVOK 20/15 Q1020 NOSIG
Conditions at: OTBD (DOHA INTL AIRPOR, QA) observed 2130 UTC 12 December 2018
Temperature: 20.0°C (68°F)
Dewpoint: 15.0°C (59°F) [RH = 73%]
Pressure (altimeter): 30.12 inches Hg (1020.0 mb)
Winds: from the W (260 degrees) at 5 MPH (4 knots; 2.1 m/s)
Visibility: 6 or more miles (10+ km)
Ceiling: ceiling and visibility are OK
Clouds: unknown
Weather: no significant weather observed at this time

METAR text: OTBD 122100Z AUTO 30005KT CAVOK 21/15 Q1019 NOSIG
Conditions at: OTBD (DOHA INTL AIRPOR, QA) observed 2100 UTC 12 December 2018
Temperature: 21.0°C (70°F)
Dewpoint: 15.0°C (59°F) [RH = 69%]
Pressure (altimeter): 30.09 inches Hg (1019.0 mb)
Winds: from the WNW (300 degrees) at 6 MPH (5 knots; 2.6 m/s)
Visibility: 6 or more miles (10+ km)
Ceiling: ceiling and visibility are OK
Clouds: unknown
Weather: no significant weather observed at this time

Forecast for: OTBD (DOHA INTL AIRPOR, QA)
Text: TAF OTBD 121703Z 1218/1324 33009KT 9000 NSC
Forecast period: 1800 UTC 12 December 2018 to 1000 UTC 13 December 2018
Forecast type: FROM: standard forecast or significant change
Winds: from the NNW (330 degrees) at 10 MPH (9 knots; 4.6 m/s)
Visibility: 6 miles (9 km)
Ceiling: unknown
Clouds: missing
Weather: no significant weather forecast for this period
Text: BECMG 1310/1312 03012KT
Forecast period: 1000 UTC 13 December 2018 to 0000 UTC 14 December 2018
Forecast type: BECOMING: Conditions expected to become as follows by 1200 UTC 13 December 2018
Winds: from the NNE (30 degrees) at 14 MPH (12 knots; 6.2 m/s)
Visibility: 6 miles (9 km)
Ceiling: unknown
Clouds: missing
Weather: no significant weather forecast for this period